Metar værinformasjon om luftfart     EFOU Oulu Airport
Temperatur
27°F Temperatur
27°F Duggpunkt
100% Luftfuktighet



Vind
5 MPT
8 KM/T
2 M/S
4 KNP



150°
SSØ
Nåværende forhold

Lys Snø Lys Snø
Trykk 1036.91 (hPa) - 30.62 (inHg)
Sikt 5 (mil) - 8 (km)
Flyplass
Flyplass-kode EFOU

Plassering: Oulu Airport
Avstand: 83 (mi)

Metar:
EFOU 301350Z AUTO 15004KT 8000 -SN OVC042 M03/M03 Q1037

Tid: 30-11-2022 15:50 EET